Grayson, California
Current Conditions -  °F | °C
As of 10:53 AM on Tuesday 27 Jan 2015 (Local Time) from KMOD Reporting Station
Few Clouds Few Clouds  
Wind Chill: 62°   Ceiling: Unl
Heat Index: 62°   Visibility: 10mi
Dew Point: 51°   Wind: 8mph
Humidity: 67%   Direction: 140°SE
Pressure: 30.22"   Gusts: NA
Location:  37.4838°N, 121.269°W
Report Text: KMOD 271853Z 14007KT 10SM FEW100 17/11 A3022 RMK AO2 SLP233 T01670106
Loading
Personal Weather Stations






























Interactive Weather Map New forecast layout! Learn more

10-Day Weather Forecast

Advertisements
Track Severe Weather on mobile